createdAt,value
2017-11-15T00:00:24.986Z,1014.46
2017-11-15T00:01:05.545Z,1014.51
2017-11-15T00:01:46.065Z,1014.47
2017-11-15T00:02:26.542Z,1014.48
2017-11-15T00:03:07.074Z,1014.43
2017-11-15T00:03:47.608Z,1014.45
2017-11-15T00:04:28.148Z,1014.55
2017-11-15T00:05:08.719Z,1014.48
2017-11-15T00:05:49.238Z,1014.51
2017-11-15T00:06:29.788Z,1014.54
2017-11-15T00:07:10.317Z,1014.57
2017-11-15T00:07:50.885Z,1014.55
2017-11-15T00:08:31.411Z,1014.57
2017-11-15T00:09:11.902Z,1014.53
2017-11-15T00:09:52.459Z,1014.56
2017-11-15T00:10:33.041Z,1014.61
2017-11-15T00:11:13.552Z,1014.54
2017-11-15T00:11:54.107Z,1014.54
2017-11-15T00:12:34.717Z,1014.54
2017-11-15T00:13:15.276Z,1014.54
2017-11-15T00:13:55.856Z,1014.53
2017-11-15T00:14:36.377Z,1014.53
2017-11-15T00:15:16.940Z,1014.54
2017-11-15T00:15:57.501Z,1014.58
2017-11-15T00:16:38.027Z,1014.53
2017-11-15T00:17:18.561Z,1014.5
2017-11-15T00:17:59.058Z,1014.5
2017-11-15T00:18:39.603Z,1014.48
2017-11-15T00:19:20.228Z,1014.45
2017-11-15T00:20:00.774Z,1014.4
2017-11-15T00:20:41.407Z,1014.44
2017-11-15T00:21:21.877Z,1014.41
2017-11-15T00:22:02.391Z,1014.43
2017-11-15T00:22:43.026Z,1014.45
2017-11-15T00:23:23.558Z,1014.46
2017-11-15T00:24:04.083Z,1014.37
2017-11-15T00:24:44.826Z,1014.42
2017-11-15T00:25:25.505Z,1014.36
2017-11-15T00:26:06.014Z,1014.38
2017-11-15T00:26:46.531Z,1014.36
2017-11-15T00:27:27.107Z,1014.35
2017-11-15T00:28:07.677Z,1014.36
2017-11-15T00:28:48.242Z,1014.38
2017-11-15T00:29:28.906Z,1014.39
2017-11-15T00:30:09.386Z,1014.38
2017-11-15T00:30:49.920Z,1014.38
2017-11-15T00:31:30.498Z,1014.45
2017-11-15T00:32:11.018Z,1014.43
2017-11-15T00:32:51.527Z,1014.46
2017-11-15T00:33:32.121Z,1014.44
2017-11-15T00:34:12.685Z,1014.5
2017-11-15T00:34:53.250Z,1014.43
2017-11-15T00:35:33.787Z,1014.42
2017-11-15T00:36:14.319Z,1014.41
2017-11-15T00:36:54.994Z,1014.39
2017-11-15T00:37:35.507Z,1014.4
2017-11-15T00:38:16.040Z,1014.39
2017-11-15T00:38:56.556Z,1014.38
2017-11-15T00:39:37.138Z,1014.37
2017-11-15T00:40:17.680Z,1014.34
2017-11-15T00:40:58.227Z,1014.34
2017-11-15T00:41:38.808Z,1014.31
2017-11-15T00:42:19.331Z,1014.28
2017-11-15T00:42:59.871Z,1014.31
2017-11-15T00:43:40.455Z,1014.3
2017-11-15T00:44:21.023Z,1014.22
2017-11-15T00:45:01.462Z,1014.19
2017-11-15T00:45:42.070Z,1014.16
2017-11-15T00:46:22.622Z,1014.19
2017-11-15T00:47:03.136Z,1014.15
2017-11-15T00:47:43.692Z,1014.15
2017-11-15T00:48:24.196Z,1014.12
2017-11-15T00:49:04.909Z,1014.14
2017-11-15T00:49:45.473Z,1014.17
2017-11-15T00:50:25.972Z,1014.19
2017-11-15T00:51:06.532Z,1014.18
2017-11-15T00:51:47.040Z,1014.15
2017-11-15T00:52:27.508Z,1014.15
2017-11-15T00:53:08.121Z,1014.11
2017-11-15T00:53:48.683Z,1014.08
2017-11-15T00:54:29.221Z,1014.1
2017-11-15T00:55:09.814Z,1014.09
2017-11-15T00:55:50.305Z,1014.04
2017-11-15T00:56:30.830Z,1014.06
2017-11-15T00:57:11.356Z,1014.08
2017-11-15T00:57:51.852Z,1014.05
2017-11-15T00:58:32.529Z,1014.05
2017-11-15T00:59:13.132Z,1014.05
2017-11-15T00:59:53.829Z,1014
2017-11-15T01:00:34.387Z,1014.03
2017-11-15T01:01:15.181Z,1014
2017-11-15T01:01:55.489Z,1014.02
2017-11-15T01:02:36.002Z,1014
2017-11-15T01:03:16.645Z,1014.04
2017-11-15T01:03:57.281Z,1013.99
2017-11-15T01:04:37.807Z,1014.06
2017-11-15T01:05:18.303Z,1014
2017-11-15T01:05:58.890Z,1014.04
2017-11-15T01:06:39.417Z,1014.05
2017-11-15T01:07:19.907Z,1014.03
2017-11-15T01:08:00.697Z,1014.02
2017-11-15T01:08:41.178Z,1014.06
2017-11-15T01:09:21.684Z,1014.06
2017-11-15T01:10:02.269Z,1014.16
2017-11-15T01:10:42.765Z,1014.12
2017-11-15T01:11:23.319Z,1014.14
2017-11-15T01:12:03.994Z,1014.08
2017-11-15T01:12:44.596Z,1014.09
2017-11-15T01:13:25.190Z,1014.1
2017-11-15T01:14:05.749Z,1014.14
2017-11-15T01:14:46.255Z,1014.11
2017-11-15T01:15:26.838Z,1014.12
2017-11-15T01:16:07.399Z,1014.16
2017-11-15T01:16:48.049Z,1014.12
2017-11-15T01:17:28.539Z,1014.19
2017-11-15T01:18:09.124Z,1014.17
2017-11-15T01:18:49.666Z,1014.19
2017-11-15T01:19:30.191Z,1014.22
2017-11-15T01:20:10.741Z,1014.21
2017-11-15T01:20:51.280Z,1014.23
2017-11-15T01:21:31.811Z,1014.26
2017-11-15T01:22:12.386Z,1014.28
2017-11-15T01:22:52.914Z,1014.26
2017-11-15T01:23:33.455Z,1014.29
2017-11-15T01:24:14.040Z,1014.28
2017-11-15T01:24:54.543Z,1014.32
2017-11-15T01:25:35.042Z,1014.27
2017-11-15T01:26:15.756Z,1014.27
2017-11-15T01:26:56.245Z,1014.3
2017-11-15T01:27:36.722Z,1014.34
2017-11-15T01:28:17.262Z,1014.31
2017-11-15T01:28:57.845Z,1014.3
2017-11-15T01:29:38.357Z,1014.3
2017-11-15T01:30:18.895Z,1014.35
2017-11-15T01:30:59.417Z,1014.34
2017-11-15T01:31:39.902Z,1014.33
2017-11-15T01:32:20.466Z,1014.35
2017-11-15T01:33:01.177Z,1014.28
2017-11-15T01:33:41.513Z,1014.28
2017-11-15T01:34:22.060Z,1014.24
2017-11-15T01:35:02.669Z,1014.27
2017-11-15T01:35:43.120Z,1014.26
2017-11-15T01:36:23.698Z,1014.27
2017-11-15T01:37:04.211Z,1014.25
2017-11-15T01:37:44.851Z,1014.26
2017-11-15T01:38:25.465Z,1014.28
2017-11-15T01:39:05.817Z,1014.18
2017-11-15T01:39:46.334Z,1014.17
2017-11-15T01:40:26.858Z,1014.22
2017-11-15T01:41:07.406Z,1014.2
2017-11-15T01:41:47.957Z,1014.17
2017-11-15T01:42:28.542Z,1014.17
2017-11-15T01:43:09.065Z,1014.18
2017-11-15T01:43:49.601Z,1014.15
2017-11-15T01:44:30.124Z,1014.11
2017-11-15T01:45:10.664Z,1014.06
2017-11-15T01:45:51.171Z,1014.11
2017-11-15T01:46:31.708Z,1014.05
2017-11-15T01:47:12.223Z,1014.05
2017-11-15T01:47:52.764Z,1014.05
2017-11-15T01:48:33.276Z,1014.04
2017-11-15T01:49:13.790Z,1014.04
2017-11-15T01:49:54.350Z,1014.04
2017-11-15T01:50:34.908Z,1014.08
2017-11-15T01:51:15.428Z,1014.07
2017-11-15T01:51:55.909Z,1014.08
2017-11-15T01:52:36.473Z,1014.12
2017-11-15T01:53:17.024Z,1014.11
2017-11-15T01:53:57.521Z,1014.14
2017-11-15T01:54:38.118Z,1014.09
2017-11-15T01:55:18.707Z,1014.13
2017-11-15T01:55:59.224Z,1014.1
2017-11-15T01:56:39.714Z,1014.13
2017-11-15T01:57:20.232Z,1014.1
2017-11-15T01:58:00.844Z,1014.12
2017-11-15T01:58:41.446Z,1014.07
2017-11-15T01:59:21.917Z,1014.09
2017-11-15T02:00:02.491Z,1014.06
2017-11-15T02:00:42.954Z,1014.13
2017-11-15T02:01:23.505Z,1014.11
2017-11-15T02:02:04.045Z,1014.09
2017-11-15T02:02:44.567Z,1014.11
2017-11-15T02:03:25.080Z,1014.12
2017-11-15T02:04:05.623Z,1014.17
2017-11-15T02:04:46.138Z,1014.1
2017-11-15T02:05:26.660Z,1014.09
2017-11-15T02:06:07.268Z,1014.1
2017-11-15T02:06:47.796Z,1014.1
2017-11-15T02:07:28.356Z,1014.05
2017-11-15T02:08:08.853Z,1014.01
2017-11-15T02:08:49.374Z,1014.05
2017-11-15T02:09:29.952Z,1014.03
2017-11-15T02:10:10.408Z,1014.03
2017-11-15T02:10:50.951Z,1014.01
2017-11-15T02:11:31.498Z,1014.06
2017-11-15T02:12:12.034Z,1014
2017-11-15T02:12:52.552Z,1014.04
2017-11-15T02:13:33.103Z,1014.01
2017-11-15T02:14:13.656Z,1014.08
2017-11-15T02:14:54.180Z,1014.08
2017-11-15T02:15:34.723Z,1014.01
2017-11-15T02:16:15.194Z,1014.07
2017-11-15T02:16:55.758Z,1014.1
2017-11-15T02:17:36.458Z,1014.11
2017-11-15T02:18:17.076Z,1014.11
2017-11-15T02:18:57.628Z,1014.13
2017-11-15T02:19:38.109Z,1014.21
2017-11-15T02:20:18.622Z,1014.17
2017-11-15T02:20:59.153Z,1014.19
2017-11-15T02:21:39.644Z,1014.12
2017-11-15T02:22:20.190Z,1014.12
2017-11-15T02:23:00.710Z,1014.16
2017-11-15T02:23:41.347Z,1014.12
2017-11-15T02:24:21.824Z,1014.11
2017-11-15T02:25:02.422Z,1014.09
2017-11-15T02:25:42.936Z,1014.11
2017-11-15T02:26:23.522Z,1014.16
2017-11-15T02:27:04.091Z,1014.14
2017-11-15T02:27:44.607Z,1014.16
2017-11-15T02:28:25.135Z,1014.19
2017-11-15T02:29:05.586Z,1014.19
2017-11-15T02:29:46.235Z,1014.24
2017-11-15T02:30:26.720Z,1014.23
2017-11-15T02:31:07.351Z,1014.21
2017-11-15T02:31:47.875Z,1014.27
2017-11-15T02:32:28.411Z,1014.27
2017-11-15T02:33:08.980Z,1014.23
2017-11-15T02:33:49.532Z,1014.22
2017-11-15T02:34:30.069Z,1014.25
2017-11-15T02:35:10.619Z,1014.23
2017-11-15T02:35:51.224Z,1014.25
2017-11-15T02:36:31.683Z,1014.23
2017-11-15T02:37:12.181Z,1014.24
2017-11-15T02:37:52.749Z,1014.17
2017-11-15T02:38:33.433Z,1014.16
2017-11-15T02:39:13.985Z,1014.18
2017-11-15T02:39:54.636Z,1014.14
2017-11-15T02:40:35.472Z,1014.17
2017-11-15T02:41:15.982Z,1014.1
2017-11-15T02:41:56.746Z,1014.07
2017-11-15T02:42:37.253Z,1014.1
2017-11-15T02:43:18.012Z,1014.01
2017-11-15T02:43:58.826Z,1014.03
2017-11-15T02:44:39.335Z,1014.04
2017-11-15T02:45:19.892Z,1014.05
2017-11-15T02:46:00.430Z,1014.01
2017-11-15T02:46:40.958Z,1014.01
2017-11-15T02:47:21.552Z,1014
2017-11-15T02:48:02.066Z,1013.95
2017-11-15T02:48:42.651Z,1013.95
2017-11-15T02:49:23.172Z,1013.96
2017-11-15T02:50:03.717Z,1013.96
2017-11-15T02:50:44.267Z,1014
2017-11-15T02:51:24.907Z,1013.97
2017-11-15T02:52:05.335Z,1013.99
2017-11-15T02:52:45.914Z,1014
2017-11-15T02:53:26.518Z,1013.99
2017-11-15T02:54:07.018Z,1013.97
2017-11-15T02:54:47.515Z,1013.98
2017-11-15T02:55:28.059Z,1014.03
2017-11-15T02:56:08.578Z,1014
2017-11-15T02:56:49.116Z,1014.06
2017-11-15T02:57:29.660Z,1014.05
2017-11-15T02:58:10.161Z,1014.03
2017-11-15T02:58:50.683Z,1014.08
2017-11-15T02:59:31.221Z,1014.07
2017-11-15T03:00:11.712Z,1014.03
2017-11-15T03:00:52.287Z,1014.03
2017-11-15T03:01:32.772Z,1014.05
2017-11-15T03:02:13.314Z,1014.03
2017-11-15T03:02:53.978Z,1014.05
2017-11-15T03:03:34.426Z,1014.08
2017-11-15T03:04:14.927Z,1014.06
2017-11-15T03:04:55.486Z,1014.05
2017-11-15T03:05:36.057Z,1014.07
2017-11-15T03:06:16.574Z,1014.09
2017-11-15T03:06:57.241Z,1014.09
2017-11-15T03:07:37.789Z,1014.08
2017-11-15T03:08:18.301Z,1014.08
2017-11-15T03:08:58.981Z,1014.09
2017-11-15T03:09:39.413Z,1014.05
2017-11-15T03:10:19.874Z,1014.1
2017-11-15T03:11:00.434Z,1014.08
2017-11-15T03:11:40.968Z,1014.09
2017-11-15T03:12:21.540Z,1014.08
2017-11-15T03:13:02.083Z,1014.06
2017-11-15T03:13:42.616Z,1014.03
2017-11-15T03:14:23.135Z,1014.04
2017-11-15T03:15:03.663Z,1014.03
2017-11-15T03:15:44.170Z,1013.99
2017-11-15T03:16:24.798Z,1014.01
2017-11-15T03:17:05.282Z,1013.98
2017-11-15T03:17:45.816Z,1014.03
2017-11-15T03:18:26.383Z,1014.01
2017-11-15T03:19:06.973Z,1013.99
2017-11-15T03:19:47.577Z,1014
2017-11-15T03:20:28.123Z,1014.03
2017-11-15T03:21:08.651Z,1014.06
2017-11-15T03:21:49.176Z,1014.04
2017-11-15T03:22:29.809Z,1014.05
2017-11-15T03:23:10.403Z,1014.03
2017-11-15T03:23:50.976Z,1014.06
2017-11-15T03:24:31.598Z,1014.07
2017-11-15T03:25:12.093Z,1014.14
2017-11-15T03:25:52.736Z,1014.12
2017-11-15T03:26:33.215Z,1014.09
2017-11-15T03:27:13.997Z,1014.14
2017-11-15T03:27:54.549Z,1014.16
2017-11-15T03:28:35.145Z,1014.07
2017-11-15T03:29:15.685Z,1014.06
2017-11-15T03:29:56.262Z,1014.11
2017-11-15T03:30:36.753Z,1014.12
2017-11-15T03:31:17.404Z,1014.1
2017-11-15T03:31:57.956Z,1014.09
2017-11-15T03:32:38.455Z,1014.05
2017-11-15T03:33:19.113Z,1014.11
2017-11-15T03:33:59.716Z,1014.1
2017-11-15T03:34:40.301Z,1014.08
2017-11-15T03:35:21.079Z,1014.08
2017-11-15T03:36:01.583Z,1014.09
2017-11-15T03:36:42.129Z,1014.09
2017-11-15T03:37:22.842Z,1014.06
2017-11-15T03:38:03.366Z,1014.04
2017-11-15T03:38:44.127Z,1014.02
2017-11-15T03:39:24.770Z,1014.03
2017-11-15T03:40:05.329Z,1013.95
2017-11-15T03:40:45.860Z,1014.01
2017-11-15T03:41:26.439Z,1013.95
2017-11-15T03:42:06.932Z,1014.01
2017-11-15T03:42:47.466Z,1013.97
2017-11-15T03:43:28.007Z,1013.98
2017-11-15T03:44:08.496Z,1013.93
2017-11-15T03:44:49.131Z,1013.93
2017-11-15T03:45:29.577Z,1013.94
2017-11-15T03:46:10.125Z,1013.92
2017-11-15T03:46:50.708Z,1013.88
2017-11-15T03:47:31.232Z,1013.88
2017-11-15T03:48:12.436Z,1013.91
2017-11-15T03:48:52.954Z,1013.9
2017-11-15T03:49:33.524Z,1013.93
2017-11-15T03:50:14.084Z,1013.89
2017-11-15T03:50:54.610Z,1013.92
2017-11-15T03:51:35.142Z,1013.93
2017-11-15T03:52:15.690Z,1013.93
2017-11-15T03:52:56.327Z,1013.91
2017-11-15T03:53:36.873Z,1013.89
2017-11-15T03:54:17.393Z,1013.86
2017-11-15T03:54:58.495Z,1013.89
2017-11-15T03:55:38.985Z,1013.84
2017-11-15T03:56:19.614Z,1013.76
2017-11-15T03:57:00.090Z,1013.81
2017-11-15T03:57:40.608Z,1013.79
2017-11-15T03:58:21.169Z,1013.79
2017-11-15T03:59:01.709Z,1013.77
2017-11-15T03:59:42.238Z,1013.76
2017-11-15T04:00:22.973Z,1013.73
2017-11-15T04:01:03.484Z,1013.68
2017-11-15T04:01:43.996Z,1013.71
2017-11-15T04:02:24.492Z,1013.68
2017-11-15T04:03:05.054Z,1013.7
2017-11-15T04:03:45.594Z,1013.74
2017-11-15T04:04:26.170Z,1013.73
2017-11-15T04:05:06.749Z,1013.75
2017-11-15T04:05:47.251Z,1013.75
2017-11-15T04:06:27.825Z,1013.79
2017-11-15T04:07:08.514Z,1013.79
2017-11-15T04:07:49.034Z,1013.8
2017-11-15T04:08:29.546Z,1013.79
2017-11-15T04:09:10.089Z,1013.77
2017-11-15T04:09:50.610Z,1013.8
2017-11-15T04:10:31.173Z,1013.81
2017-11-15T04:11:11.694Z,1013.79
2017-11-15T04:11:52.223Z,1013.84
2017-11-15T04:12:32.709Z,1013.9
2017-11-15T04:13:13.271Z,1013.87
2017-11-15T04:13:53.847Z,1013.81
2017-11-15T04:14:34.361Z,1013.87
2017-11-15T04:15:14.868Z,1013.84
2017-11-15T04:15:55.410Z,1013.88
2017-11-15T04:16:35.971Z,1013.84
2017-11-15T04:17:16.497Z,1013.84
2017-11-15T04:17:56.991Z,1013.87
2017-11-15T04:18:37.632Z,1013.85
2017-11-15T04:19:18.183Z,1013.86
2017-11-15T04:19:58.746Z,1013.85
2017-11-15T04:20:39.300Z,1013.82
2017-11-15T04:21:19.861Z,1013.87
2017-11-15T04:22:00.343Z,1013.87
2017-11-15T04:22:40.928Z,1013.91
2017-11-15T04:23:21.431Z,1013.88
2017-11-15T04:24:01.963Z,1013.84
2017-11-15T04:24:42.467Z,1013.82
2017-11-15T04:25:22.963Z,1013.83
2017-11-15T04:26:03.465Z,1013.81
2017-11-15T04:26:44.064Z,1013.79
2017-11-15T04:27:24.585Z,1013.78
2017-11-15T04:28:05.131Z,1013.81
2017-11-15T04:28:45.754Z,1013.74
2017-11-15T04:29:26.356Z,1013.79
2017-11-15T04:30:06.827Z,1013.79
2017-11-15T04:30:47.309Z,1013.81
2017-11-15T04:31:28.056Z,1013.78
2017-11-15T04:32:08.682Z,1013.8
2017-11-15T04:32:49.234Z,1013.75
2017-11-15T04:33:29.773Z,1013.73
2017-11-15T04:34:10.278Z,1013.75
2017-11-15T04:34:50.832Z,1013.76
2017-11-15T04:35:31.367Z,1013.74
2017-11-15T04:36:11.889Z,1013.71
2017-11-15T04:36:52.382Z,1013.7
2017-11-15T04:37:32.938Z,1013.66
2017-11-15T04:38:13.544Z,1013.69
2017-11-15T04:38:54.103Z,1013.69
2017-11-15T04:39:34.556Z,1013.69
2017-11-15T04:40:15.119Z,1013.65
2017-11-15T04:40:55.671Z,1013.66
2017-11-15T04:41:36.216Z,1013.67
2017-11-15T04:42:16.730Z,1013.71
2017-11-15T04:42:57.287Z,1013.71
2017-11-15T04:43:37.810Z,1013.7
2017-11-15T04:44:18.386Z,1013.69
2017-11-15T04:44:59.007Z,1013.71
2017-11-15T04:45:39.555Z,1013.72
2017-11-15T04:46:20.082Z,1013.72
2017-11-15T04:47:00.602Z,1013.72
2017-11-15T04:47:41.152Z,1013.7
2017-11-15T04:48:21.650Z,1013.67
2017-11-15T04:49:02.233Z,1013.69
2017-11-15T04:49:42.720Z,1013.72
2017-11-15T04:50:23.319Z,1013.7
2017-11-15T04:51:03.842Z,1013.64
2017-11-15T04:51:44.384Z,1013.66
2017-11-15T04:52:24.938Z,1013.69
2017-11-15T04:53:05.478Z,1013.67
2017-11-15T04:53:45.996Z,1013.69
2017-11-15T04:54:26.513Z,1013.7
2017-11-15T04:55:07.109Z,1013.69
2017-11-15T04:55:47.668Z,1013.69
2017-11-15T04:56:28.219Z,1013.75
2017-11-15T04:57:08.765Z,1013.77
2017-11-15T04:57:49.228Z,1013.74
2017-11-15T04:58:29.793Z,1013.69
2017-11-15T04:59:10.360Z,1013.71
2017-11-15T04:59:50.886Z,1013.7
2017-11-15T05:00:31.447Z,1013.72
2017-11-15T05:01:11.959Z,1013.77
2017-11-15T05:01:52.456Z,1013.75
2017-11-15T05:02:33.107Z,1013.73
2017-11-15T05:03:13.602Z,1013.71
2017-11-15T05:03:54.245Z,1013.75
2017-11-15T05:04:34.800Z,1013.71
2017-11-15T05:05:15.382Z,1013.71
2017-11-15T05:05:55.861Z,1013.69
2017-11-15T05:06:36.340Z,1013.74
2017-11-15T05:07:16.845Z,1013.72
2017-11-15T05:07:57.429Z,1013.73
2017-11-15T05:08:37.939Z,1013.69
2017-11-15T05:09:18.494Z,1013.75
2017-11-15T05:09:59.032Z,1013.77
2017-11-15T05:10:39.535Z,1013.8
2017-11-15T05:11:20.103Z,1013.78
2017-11-15T05:12:00.623Z,1013.75
2017-11-15T05:12:41.199Z,1013.81
2017-11-15T05:13:21.737Z,1013.82
2017-11-15T05:14:02.357Z,1013.78
2017-11-15T05:14:42.863Z,1013.8
2017-11-15T05:15:23.426Z,1013.8
2017-11-15T05:16:04.003Z,1013.81
2017-11-15T05:16:44.512Z,1013.8
2017-11-15T05:17:25.016Z,1013.8
2017-11-15T05:18:05.541Z,1013.83
2017-11-15T05:18:46.098Z,1013.8
2017-11-15T05:19:26.611Z,1013.83
2017-11-15T05:20:07.207Z,1013.81
2017-11-15T05:20:47.906Z,1013.78
2017-11-15T05:21:28.283Z,1013.82
2017-11-15T05:22:08.799Z,1013.84
2017-11-15T05:22:49.306Z,1013.87
2017-11-15T05:23:30.126Z,1013.92
2017-11-15T05:24:10.641Z,1013.89
2017-11-15T05:24:51.200Z,1013.87
2017-11-15T05:25:31.747Z,1013.83
2017-11-15T05:26:12.327Z,1013.91
2017-11-15T05:26:52.877Z,1013.87
2017-11-15T05:27:33.429Z,1013.88
2017-11-15T05:28:14.030Z,1013.81
2017-11-15T05:28:54.566Z,1013.87
2017-11-15T05:29:35.063Z,1013.87
2017-11-15T05:30:15.575Z,1013.87
2017-11-15T05:30:56.145Z,1013.84
2017-11-15T05:31:36.720Z,1013.91
2017-11-15T05:32:17.272Z,1013.88
2017-11-15T05:32:57.836Z,1013.87
2017-11-15T05:33:38.490Z,1013.85
2017-11-15T05:34:18.990Z,1013.88
2017-11-15T05:34:59.582Z,1013.85
2017-11-15T05:35:40.077Z,1013.81
2017-11-15T05:36:20.782Z,1013.85
2017-11-15T05:37:01.312Z,1013.85
2017-11-15T05:37:41.829Z,1013.85
2017-11-15T05:38:22.440Z,1013.87
2017-11-15T05:39:02.974Z,1013.91
2017-11-15T05:39:43.565Z,1013.89
2017-11-15T05:40:24.173Z,1013.87
2017-11-15T05:41:04.727Z,1013.86
2017-11-15T05:41:45.254Z,1013.89
2017-11-15T05:42:26.059Z,1013.9
2017-11-15T05:43:06.653Z,1013.85
2017-11-15T05:43:47.319Z,1013.82
2017-11-15T05:44:27.853Z,1013.89
2017-11-15T05:45:08.592Z,1013.85
2017-11-15T05:45:49.282Z,1013.88
2017-11-15T05:46:29.773Z,1013.95
2017-11-15T05:47:10.374Z,1013.9
2017-11-15T05:47:50.878Z,1013.97
2017-11-15T05:48:31.448Z,1013.92
2017-11-15T05:49:12.000Z,1013.93
2017-11-15T05:49:52.526Z,1013.97
2017-11-15T05:50:33.098Z,1014
2017-11-15T05:51:13.710Z,1013.98
2017-11-15T05:51:54.273Z,1013.98
2017-11-15T05:52:34.781Z,1013.96
2017-11-15T05:53:15.267Z,1014
2017-11-15T05:53:55.822Z,1013.97
2017-11-15T05:54:36.386Z,1013.93
2017-11-15T05:55:16.939Z,1013.9
2017-11-15T05:55:57.457Z,1013.92
2017-11-15T05:56:37.958Z,1013.89
2017-11-15T05:57:18.517Z,1013.91
2017-11-15T05:57:59.018Z,1013.98
2017-11-15T05:58:39.548Z,1013.93
2017-11-15T05:59:20.040Z,1013.96
2017-11-15T06:00:00.567Z,1013.93
2017-11-15T06:00:41.165Z,1013.95
2017-11-15T06:01:21.679Z,1013.96
2017-11-15T06:02:02.209Z,1013.96
2017-11-15T06:02:42.727Z,1013.99
2017-11-15T06:03:23.269Z,1013.94
2017-11-15T06:04:03.826Z,1013.96
2017-11-15T06:04:44.317Z,1014
2017-11-15T06:05:24.879Z,1013.94
2017-11-15T06:06:05.413Z,1013.99
2017-11-15T06:06:45.898Z,1014.01
2017-11-15T06:07:26.519Z,1013.99
2017-11-15T06:08:07.011Z,1014.03
2017-11-15T06:08:47.536Z,1014
2017-11-15T06:09:28.147Z,1014
2017-11-15T06:10:08.681Z,1014.1
2017-11-15T06:10:49.224Z,1014.05
2017-11-15T06:11:29.711Z,1014.01
2017-11-15T06:12:10.388Z,1014.06
2017-11-15T06:12:50.930Z,1014.06
2017-11-15T06:13:31.394Z,1014.08
2017-11-15T06:14:12.110Z,1014.05
2017-11-15T06:14:52.592Z,1014.12
2017-11-15T06:15:33.095Z,1014.13
2017-11-15T06:16:13.751Z,1014.09
2017-11-15T06:16:54.252Z,1014.08
2017-11-15T06:17:34.770Z,1014.17
2017-11-15T06:18:15.345Z,1014.14
2017-11-15T06:18:55.973Z,1014.18
2017-11-15T06:19:36.433Z,1014.19
2017-11-15T06:20:17.069Z,1014.21
2017-11-15T06:20:57.726Z,1014.21
2017-11-15T06:21:38.260Z,1014.23
2017-11-15T06:22:18.854Z,1014.22
2017-11-15T06:22:59.388Z,1014.19
2017-11-15T06:23:39.901Z,1014.21
2017-11-15T06:24:20.441Z,1014.25
2017-11-15T06:25:01.028Z,1014.24
2017-11-15T06:25:41.571Z,1014.27
2017-11-15T06:26:21.983Z,1014.21
2017-11-15T06:27:02.509Z,1014.24
2017-11-15T06:27:43.073Z,1014.23
2017-11-15T06:28:23.674Z,1014.25
2017-11-15T06:29:04.226Z,1014.28
2017-11-15T06:29:44.841Z,1014.25
2017-11-15T06:30:25.323Z,1014.23
2017-11-15T06:31:05.967Z,1014.26
2017-11-15T06:31:46.536Z,1014.23
2017-11-15T06:32:27.030Z,1014.31
2017-11-15T06:33:07.593Z,1014.27
2017-11-15T06:33:48.244Z,1014.25
2017-11-15T06:34:28.832Z,1014.26
2017-11-15T06:35:09.398Z,1014.27
2017-11-15T06:35:49.888Z,1014.26
2017-11-15T06:36:30.403Z,1014.24
2017-11-15T06:37:11.333Z,1014.27
2017-11-15T06:37:52.555Z,1014.31
2017-11-15T06:38:33.493Z,1014.3
2017-11-15T06:39:14.037Z,1014.29
2017-11-15T06:39:55.183Z,1014.32
2017-11-15T06:40:35.874Z,1014.32
2017-11-15T06:41:16.618Z,1014.34
2017-11-15T06:41:58.746Z,1014.33
2017-11-15T06:42:40.692Z,1014.35
2017-11-15T06:43:21.218Z,1014.35
2017-11-15T06:44:01.759Z,1014.39
2017-11-15T06:44:42.315Z,1014.44
2017-11-15T06:45:22.864Z,1014.47
2017-11-15T06:46:03.333Z,1014.46
2017-11-15T06:46:43.897Z,1014.46
2017-11-15T06:47:24.383Z,1014.48
2017-11-15T06:48:04.990Z,1014.52
2017-11-15T06:48:45.538Z,1014.52
2017-11-15T06:49:26.199Z,1014.53
2017-11-15T06:50:06.718Z,1014.53
2017-11-15T06:50:47.510Z,1014.55
2017-11-15T06:51:28.040Z,1014.54
2017-11-15T06:52:08.571Z,1014.52
2017-11-15T06:52:49.118Z,1014.58
2017-11-15T06:53:29.642Z,1014.58
2017-11-15T06:54:10.668Z,1014.5
2017-11-15T06:54:51.186Z,1014.51
2017-11-15T06:55:31.751Z,1014.52
2017-11-15T06:56:12.370Z,1014.5
2017-11-15T06:56:52.810Z,1014.48
2017-11-15T06:57:33.416Z,1014.54
2017-11-15T06:58:14.474Z,1014.54
2017-11-15T06:58:54.857Z,1014.52
2017-11-15T06:59:35.471Z,1014.58
2017-11-15T07:00:15.931Z,1014.59
2017-11-15T07:00:56.503Z,1014.52
2017-11-15T07:01:37.013Z,1014.55
2017-11-15T07:02:17.574Z,1014.56
2017-11-15T07:02:58.957Z,1014.61
2017-11-15T07:03:38.657Z,1014.61
2017-11-15T07:04:19.408Z,1014.58
2017-11-15T07:04:59.902Z,1014.6
2017-11-15T07:05:40.425Z,1014.58
2017-11-15T07:06:20.923Z,1014.58
2017-11-15T07:07:01.537Z,1014.55
2017-11-15T07:07:42.095Z,1014.55
2017-11-15T07:08:22.632Z,1014.58
2017-11-15T07:09:03.186Z,1014.56
2017-11-15T07:09:43.730Z,1014.58
2017-11-15T07:10:24.483Z,1014.57
2017-11-15T07:11:05.026Z,1014.56
2017-11-15T07:11:45.551Z,1014.59
2017-11-15T07:12:26.065Z,1014.62
2017-11-15T07:13:06.623Z,1014.62
2017-11-15T07:13:47.231Z,1014.61
2017-11-15T07:14:27.827Z,1014.6
2017-11-15T07:15:08.369Z,1014.6
2017-11-15T07:15:48.841Z,1014.62
2017-11-15T07:16:29.426Z,1014.66
2017-11-15T07:17:10.048Z,1014.62
2017-11-15T07:17:50.637Z,1014.61
2017-11-15T07:18:31.194Z,1014.6
2017-11-15T07:19:11.744Z,1014.59
2017-11-15T07:19:52.252Z,1014.61
2017-11-15T07:20:32.781Z,1014.62
2017-11-15T07:21:13.344Z,1014.61
2017-11-15T07:21:53.865Z,1014.64
2017-11-15T07:22:34.391Z,1014.6
2017-11-15T07:23:15.010Z,1014.58
2017-11-15T07:23:55.603Z,1014.59
2017-11-15T07:24:36.113Z,1014.59
2017-11-15T07:25:16.761Z,1014.57
2017-11-15T07:25:57.342Z,1014.59
2017-11-15T07:26:37.880Z,1014.6
2017-11-15T07:27:18.478Z,1014.6
2017-11-15T07:27:58.958Z,1014.59
2017-11-15T07:28:39.650Z,1014.63
2017-11-15T07:29:20.219Z,1014.64
2017-11-15T07:30:00.812Z,1014.64
2017-11-15T07:30:41.392Z,1014.65
2017-11-15T07:31:21.928Z,1014.65
2017-11-15T07:32:02.425Z,1014.65
2017-11-15T07:32:42.988Z,1014.67
2017-11-15T07:33:23.543Z,1014.69
2017-11-15T07:34:04.091Z,1014.68
2017-11-15T07:34:44.626Z,1014.71
2017-11-15T07:35:25.132Z,1014.69
2017-11-15T07:36:05.681Z,1014.68
2017-11-15T07:36:46.308Z,1014.7
2017-11-15T07:37:26.930Z,1014.69
2017-11-15T07:38:07.451Z,1014.65
2017-11-15T07:38:47.947Z,1014.66
2017-11-15T07:39:28.553Z,1014.72
2017-11-15T07:40:09.054Z,1014.72
2017-11-15T07:40:49.602Z,1014.73
2017-11-15T07:41:30.173Z,1014.71
2017-11-15T07:42:10.888Z,1014.73
2017-11-15T07:42:51.409Z,1014.77
2017-11-15T07:43:31.959Z,1014.78
2017-11-15T07:44:12.495Z,1014.82
2017-11-15T07:44:53.059Z,1014.77
2017-11-15T07:45:33.645Z,1014.81
2017-11-15T07:46:14.226Z,1014.78
2017-11-15T07:46:54.750Z,1014.79
2017-11-15T07:47:35.314Z,1014.82
2017-11-15T07:48:15.867Z,1014.82
2017-11-15T07:48:56.416Z,1014.79
2017-11-15T07:49:36.970Z,1014.74
2017-11-15T07:50:17.509Z,1014.75
2017-11-15T07:50:57.975Z,1014.78
2017-11-15T07:51:38.597Z,1014.73
2017-11-15T07:52:19.159Z,1014.78
2017-11-15T07:52:59.825Z,1014.78
2017-11-15T07:53:40.485Z,1014.76
2017-11-15T07:54:21.012Z,1014.75
2017-11-15T07:55:01.702Z,1014.79
2017-11-15T07:55:42.297Z,1014.77
2017-11-15T07:56:22.814Z,1014.82
2017-11-15T07:57:03.393Z,1014.81
2017-11-15T07:57:44.122Z,1014.75
2017-11-15T07:58:24.725Z,1014.82
2017-11-15T07:59:05.535Z,1014.82
2017-11-15T07:59:46.160Z,1014.83
2017-11-15T08:00:26.751Z,1014.81
2017-11-15T08:01:07.332Z,1014.82
2017-11-15T08:01:48.015Z,1014.82
2017-11-15T08:02:28.682Z,1014.86
2017-11-15T08:03:09.229Z,1014.83
2017-11-15T08:03:49.732Z,1014.83
2017-11-15T08:04:30.301Z,1014.85
2017-11-15T08:05:11.001Z,1014.84
2017-11-15T08:05:51.648Z,1014.83
2017-11-15T08:06:32.236Z,1014.78
2017-11-15T08:07:12.696Z,1014.85
2017-11-15T08:07:53.382Z,1014.81
2017-11-15T08:08:33.956Z,1014.84
2017-11-15T08:09:14.414Z,1014.81
2017-11-15T08:09:55.028Z,1014.86
2017-11-15T08:10:35.744Z,1014.84
2017-11-15T08:11:16.197Z,1014.81
2017-11-15T08:11:56.811Z,1014.79
2017-11-15T08:12:37.284Z,1014.81